Hazel Hurst, Pennsylvania
Current Conditions -  °F | °C
As of 9:53 AM on Wednesday 22 Oct 2014 (Local Time) from KBFD Reporting Station
Haze Haze  
Wind Chill: 36°   Ceiling: 200
Heat Index: 41°   Visibility: 2.5mi
Dew Point: 39°   Wind: 8mph
Humidity: 93%   Direction: 20°NNE
Pressure: 30.14"   Gusts: NA
Location:  41.71°N, 78.58°W
Report Text: KBFD 221353Z AUTO 02007KT 2 1/2SM BR OVC002 05/04 A3014 RMK AO2 SLP212 T00500039
Loading
Personal Weather Stations






























Interactive Weather Map
Tropical Storm Tracking
New forecast layout! Learn more

10-Day Weather Forecast

Advertisements
Track Severe Weather on mobile